createdAt,value
2019-05-16T00:01:38.395Z,100127.64
2019-05-16T00:04:08.481Z,100129.42
2019-05-16T00:06:35.917Z,100128.91
2019-05-16T00:09:04.726Z,100127.12
2019-05-16T00:11:32.656Z,100128.44
2019-05-16T00:14:00.383Z,100138.52
2019-05-16T00:16:28.794Z,100136.45
2019-05-16T00:18:58.306Z,100133.52
2019-05-16T00:21:28.272Z,100139.66
2019-05-16T00:23:56.058Z,100129.55
2019-05-16T00:26:23.869Z,100121.27
2019-05-16T00:28:51.584Z,100124.89
2019-05-16T00:31:19.561Z,100128.86
2019-05-16T00:33:48.783Z,100124.21
2019-05-16T00:36:18.704Z,100124.76
2019-05-16T00:38:48.352Z,100118.53
2019-05-16T00:41:17.933Z,100113.92
2019-05-16T00:43:45.791Z,100096.39
2019-05-16T00:46:13.673Z,100092.30
2019-05-16T00:48:41.527Z,100101.05
2019-05-16T00:51:10.084Z,100111.28
2019-05-16T00:53:38.238Z,100102.02
2019-05-16T00:56:07.915Z,100110.94
2019-05-16T00:58:38.005Z,100111.63
2019-05-16T01:01:08.338Z,100107.18
2019-05-16T01:03:37.689Z,100102.23
2019-05-16T01:06:15.732Z,100102.08
2019-05-16T01:08:35.157Z,100100.41
2019-05-16T01:11:03.807Z,100098.74
2019-05-16T01:13:31.696Z,100103.05
2019-05-16T01:15:59.523Z,100103.34
2019-05-16T01:18:28.738Z,100099.72
2019-05-16T01:20:58.573Z,100105.36
2019-05-16T01:23:28.252Z,100100.57
2019-05-16T01:25:58.637Z,100103.56
2019-05-16T01:28:28.280Z,100098.11
2019-05-16T01:30:58.046Z,100087.83
2019-05-16T01:33:27.925Z,100095.13
2019-05-16T01:35:55.713Z,100090.68
2019-05-16T01:38:23.666Z,100091.31
2019-05-16T01:40:51.477Z,100103.05
2019-05-16T01:43:19.312Z,100091.66
2019-05-16T01:45:48.716Z,100099.72
2019-05-16T01:48:19.095Z,100090.81
2019-05-16T01:50:48.154Z,100091.37
2019-05-16T01:53:17.910Z,100094.35
2019-05-16T01:55:45.965Z,100092.18
2019-05-16T01:58:13.769Z,100094.83
2019-05-16T02:00:52.415Z,100085.39
2019-05-16T02:03:11.907Z,100085.57
2019-05-16T02:05:39.840Z,100081.77
2019-05-16T02:08:08.848Z,100076.48
2019-05-16T02:10:37.880Z,100070.84
2019-05-16T02:13:08.332Z,100070.68
2019-05-16T02:15:38.110Z,100068.55
2019-05-16T02:18:08.011Z,100068.55
2019-05-16T02:20:35.123Z,100070.00
2019-05-16T02:23:02.942Z,100070.63
2019-05-16T02:25:30.693Z,100065.34
2019-05-16T02:27:59.006Z,100061.72
2019-05-16T02:30:27.052Z,100058.95
2019-05-16T02:32:54.852Z,100052.12
2019-05-16T02:35:22.687Z,100052.12
2019-05-16T02:37:54.771Z,100044.95
2019-05-16T02:40:22.710Z,100053.44
2019-05-16T02:42:51.486Z,100060.69
2019-05-16T02:45:24.656Z,100059.37
2019-05-16T02:47:51.512Z,100053.10
2019-05-16T02:50:22.400Z,100054.77
2019-05-16T02:52:51.674Z,100044.40
2019-05-16T02:55:21.685Z,100037.28
2019-05-16T02:57:50.957Z,100043.08
2019-05-16T03:00:32.732Z,100034.64
2019-05-16T03:03:01.295Z,100036.17
2019-05-16T03:05:30.683Z,100031.70
2019-05-16T03:08:01.313Z,100025.59
2019-05-16T03:10:31.106Z,100026.75
2019-05-16T03:13:00.965Z,100027.39
2019-05-16T03:15:30.968Z,100027.73
2019-05-16T03:18:03.793Z,100025.25
2019-05-16T03:20:33.286Z,100021.62
2019-05-16T03:23:02.294Z,100019.45
2019-05-16T03:25:31.126Z,100013.19
2019-05-16T03:28:01.781Z,100009.55
2019-05-16T03:30:34.154Z,100009.90
2019-05-16T03:33:03.827Z,100011.22
2019-05-16T03:35:33.426Z,100009.90
2019-05-16T03:38:01.499Z,100009.09
2019-05-16T03:40:31.114Z,100000.17
2019-05-16T03:43:01.042Z,99995.70
2019-05-16T03:45:27.293Z,99997.02
2019-05-16T03:47:54.999Z,99998.00
2019-05-16T03:50:22.998Z,100005.59
2019-05-16T03:52:51.071Z,100005.25
2019-05-16T03:55:21.391Z,100002.47
2019-05-16T03:57:51.512Z,100002.13
2019-05-16T04:00:22.128Z,100001.62
2019-05-16T04:02:52.324Z,100003.59
2019-05-16T04:05:21.098Z,100001.28
2019-05-16T04:07:53.077Z,99999.66
2019-05-16T04:10:21.532Z,99998.84
2019-05-16T04:12:51.346Z,100000.64
2019-05-16T04:15:21.524Z,100005.12
2019-05-16T04:17:51.279Z,100012.07
2019-05-16T04:20:21.560Z,100004.48
2019-05-16T04:22:51.256Z,100006.14
2019-05-16T04:25:21.370Z,100007.77
2019-05-16T04:27:50.205Z,100002.31
2019-05-16T04:30:21.668Z,100008.78
2019-05-16T04:32:50.846Z,100011.56
2019-05-16T04:35:17.581Z,100006.27
2019-05-16T04:37:45.318Z,100005.93
2019-05-16T04:40:13.961Z,100006.61
2019-05-16T04:42:42.840Z,99999.36
2019-05-16T04:45:12.323Z,100007.80
2019-05-16T04:47:41.390Z,100006.31
2019-05-16T04:50:11.747Z,100004.70
2019-05-16T04:52:41.992Z,100001.33
2019-05-16T04:55:11.862Z,100000.69
2019-05-16T04:57:42.556Z,100001.37
2019-05-16T05:00:11.627Z,99997.73
2019-05-16T05:02:41.912Z,99994.63
2019-05-16T05:05:12.598Z,100005.88
2019-05-16T05:07:40.717Z,100003.75
2019-05-16T05:10:11.268Z,99997.31
2019-05-16T05:12:40.800Z,99994.66
2019-05-16T05:15:11.772Z,99994.32
2019-05-16T05:17:41.284Z,99997.47
2019-05-16T05:20:10.614Z,99988.74
2019-05-16T05:22:39.760Z,100010.70
2019-05-16T05:25:10.645Z,99999.61
2019-05-16T05:27:38.032Z,99997.02
2019-05-16T05:30:06.351Z,100008.09
2019-05-16T05:32:34.079Z,100019.02
2019-05-16T05:35:01.982Z,100015.09
2019-05-16T05:37:29.984Z,100011.47
2019-05-16T05:39:59.889Z,100026.36
2019-05-16T05:42:27.561Z,100036.26
2019-05-16T05:44:55.343Z,100043.69
2019-05-16T05:47:23.057Z,100042.06
2019-05-16T05:49:50.785Z,100044.92
2019-05-16T05:52:20.835Z,100047.91
2019-05-16T05:54:50.260Z,100049.75
2019-05-16T05:57:20.720Z,100043.98
2019-05-16T05:59:49.728Z,100046.12
2019-05-16T06:02:17.366Z,100047.65
2019-05-16T06:04:45.703Z,100051.95
2019-05-16T06:07:13.627Z,100046.63
2019-05-16T06:09:52.882Z,100048.04
2019-05-16T06:12:11.213Z,100052.81
2019-05-16T06:14:41.797Z,100058.06
2019-05-16T06:17:11.285Z,100051.06
2019-05-16T06:19:40.249Z,100063.02
2019-05-16T06:22:10.183Z,100056.35
2019-05-16T06:24:39.942Z,100063.61
2019-05-16T06:27:09.722Z,100061.94
2019-05-16T06:29:37.217Z,100057.77
2019-05-16T06:32:05.631Z,100058.74
2019-05-16T06:34:33.866Z,100059.56
2019-05-16T06:37:01.650Z,100057.26
2019-05-16T06:39:41.183Z,100054.91
2019-05-16T06:42:00.566Z,100056.66
2019-05-16T06:44:30.746Z,100050.37
2019-05-16T06:47:15.007Z,100056.88
2019-05-16T06:49:30.257Z,100064.03
2019-05-16T06:51:59.557Z,100059.38
2019-05-16T06:54:29.728Z,100058.92
2019-05-16T06:56:57.002Z,100061.44
2019-05-16T06:59:24.941Z,100070.40
2019-05-16T07:01:52.789Z,100070.73
2019-05-16T07:04:20.655Z,100068.23
2019-05-16T07:06:58.613Z,100069.59
2019-05-16T07:09:20.527Z,100067.80
2019-05-16T07:11:50.315Z,100075.44
2019-05-16T07:14:17.782Z,100082.39
2019-05-16T07:16:45.709Z,100090.84
2019-05-16T07:19:13.657Z,100092.86
2019-05-16T07:21:42.054Z,100090.41
2019-05-16T07:24:10.990Z,100088.80
2019-05-16T07:26:40.537Z,100087.98
2019-05-16T07:29:11.039Z,100087.17
2019-05-16T07:31:40.609Z,100083.16
2019-05-16T07:34:10.782Z,100086.28
2019-05-16T07:36:40.475Z,100081.84
2019-05-16T07:39:10.553Z,100087.13
2019-05-16T07:41:40.013Z,100084.14
2019-05-16T07:44:10.563Z,100087.77
2019-05-16T07:46:37.277Z,100093.06
2019-05-16T07:49:05.014Z,100091.10
2019-05-16T07:51:32.821Z,100095.80
2019-05-16T07:54:00.569Z,100092.84
2019-05-16T07:56:31.054Z,100092.13
2019-05-16T07:59:00.893Z,100094.42
2019-05-16T08:01:30.715Z,100098.23
2019-05-16T08:03:59.962Z,100093.96
2019-05-16T08:06:31.029Z,100088.37
2019-05-16T08:09:00.247Z,100093.19
2019-05-16T08:11:30.284Z,100090.92
2019-05-16T08:13:57.401Z,100090.92
2019-05-16T08:16:25.226Z,100079.77
2019-05-16T08:18:53.150Z,100076.58
2019-05-16T08:21:21.084Z,100073.97
2019-05-16T08:23:50.393Z,100076.65
2019-05-16T08:26:21.910Z,100082.62
2019-05-16T08:28:50.243Z,100084.97
2019-05-16T08:31:21.448Z,100082.35
2019-05-16T08:33:48.092Z,100084.22
2019-05-16T08:36:15.826Z,100078.75
2019-05-16T08:38:43.807Z,100086.56
2019-05-16T08:43:41.667Z,100088.56
2019-05-16T08:46:12.263Z,100094.41
2019-05-16T08:48:42.351Z,100100.07
2019-05-16T08:50:11.203Z,100089.69
2019-05-16T08:51:12.221Z,100097.45
2019-05-16T08:53:43.315Z,100094.13
2019-05-16T08:56:13.078Z,100086.17
2019-05-16T08:58:41.024Z,100080.95
2019-05-16T09:01:14.351Z,100079.66
2019-05-16T09:03:41.607Z,100083.83
2019-05-16T09:06:11.515Z,100084.59
2019-05-16T09:08:38.079Z,100087.05
2019-05-16T09:11:26.930Z,100074.80
2019-05-16T09:13:37.022Z,100067.50
2019-05-16T09:16:07.759Z,100076.84
2019-05-16T09:18:45.942Z,100075.88
2019-05-16T09:21:07.356Z,100078.86
2019-05-16T09:23:34.646Z,100079.86
2019-05-16T09:26:02.481Z,100080.39
2019-05-16T09:28:30.398Z,100078.41
2019-05-16T09:30:58.175Z,100076.45
2019-05-16T09:33:26.985Z,100070.17
2019-05-16T09:35:57.247Z,100065.73
2019-05-16T09:38:32.738Z,100069.88
2019-05-16T09:40:57.054Z,100071.73
2019-05-16T09:43:28.074Z,100065.78
2019-05-16T09:46:01.758Z,100051.52
2019-05-16T09:48:27.728Z,100030.59
2019-05-16T09:50:54.237Z,100047.22
2019-05-16T09:53:22.102Z,100045.56
2019-05-16T09:55:50.669Z,100050.21
2019-05-16T09:58:18.762Z,100052.88
2019-05-16T10:00:47.588Z,100058.05
2019-05-16T10:03:20.196Z,100048.09
2019-05-16T10:05:46.673Z,100048.09
2019-05-16T10:08:17.088Z,100058.75
2019-05-16T10:10:44.609Z,100048.31
2019-05-16T10:13:12.512Z,100054.97
2019-05-16T10:15:40.279Z,100054.97
2019-05-16T10:18:09.396Z,100052.80
2019-05-16T10:20:37.294Z,100062.62
2019-05-16T10:23:14.422Z,100061.30
2019-05-16T10:25:37.538Z,100058.98
2019-05-16T10:28:06.012Z,100051.19
2019-05-16T10:30:34.148Z,100052.01
2019-05-16T10:33:02.087Z,100051.86
2019-05-16T10:35:30.372Z,100056.66
2019-05-16T10:37:58.146Z,100056.66
2019-05-16T10:40:27.845Z,100054.37
2019-05-16T10:42:57.871Z,100059.35
2019-05-16T10:45:27.319Z,100056.22
2019-05-16T10:47:55.196Z,100056.22
2019-05-16T10:50:23.248Z,100053.05
2019-05-16T10:53:13.331Z,100053.05
2019-05-16T10:55:21.029Z,100062.34
2019-05-16T10:57:49.246Z,100055.03
2019-05-16T11:00:42.658Z,100055.03
2019-05-16T11:02:48.436Z,100050.37
2019-05-16T11:05:28.743Z,100057.86
2019-05-16T11:07:48.608Z,100057.86
2019-05-16T11:10:16.508Z,100056.53
2019-05-16T11:12:51.184Z,100051.70
2019-05-16T11:15:17.239Z,100061.67
2019-05-16T11:17:45.277Z,100061.67
2019-05-16T11:20:19.627Z,100055.69
2019-05-16T11:22:47.758Z,100053.96
2019-05-16T11:25:24.752Z,100053.96
2019-05-16T11:27:46.872Z,100058.61
2019-05-16T11:30:18.008Z,100058.61
2019-05-16T11:32:46.971Z,100060.31
2019-05-16T11:35:17.221Z,100058.88
2019-05-16T11:37:47.203Z,100050.27
2019-05-16T11:40:17.755Z,100050.27
2019-05-16T11:42:48.691Z,100045.27
2019-05-16T11:45:16.595Z,100043.28
2019-05-16T11:47:46.843Z,100034.64
2019-05-16T11:50:17.489Z,100051.06
2019-05-16T11:52:47.383Z,100042.59
2019-05-16T11:55:14.617Z,100047.91
2019-05-16T11:57:42.359Z,100036.08
2019-05-16T12:00:12.470Z,100040.91
2019-05-16T12:02:42.741Z,100041.50
2019-05-16T12:05:10.334Z,100042.72
2019-05-16T12:07:44.267Z,100034.00
2019-05-16T12:10:09.122Z,100042.56
2019-05-16T12:12:37.208Z,100040.83
2019-05-16T12:15:07.819Z,100049.11
2019-05-16T12:17:36.067Z,100047.75
2019-05-16T12:20:07.510Z,100045.31
2019-05-16T12:22:34.546Z,100047.07
2019-05-16T12:25:04.015Z,100047.16
2019-05-16T12:27:33.711Z,100044.95
2019-05-16T12:30:01.882Z,100026.07
2019-05-16T12:32:29.828Z,100036.83
2019-05-16T12:34:57.587Z,100046.88
2019-05-16T12:37:27.580Z,100045.55
2019-05-16T12:39:57.269Z,100038.73
2019-05-16T12:42:26.975Z,100038.73
2019-05-16T12:44:56.334Z,100029.95
2019-05-16T12:47:24.354Z,100035.61
2019-05-16T12:49:52.675Z,100035.70
2019-05-16T12:52:20.459Z,100045.57
2019-05-16T12:54:48.924Z,100039.08
2019-05-16T12:57:18.193Z,100039.08
2019-05-16T12:59:50.144Z,100035.83
2019-05-16T13:02:16.461Z,100037.31
2019-05-16T13:04:47.058Z,100032.57
2019-05-16T13:07:17.242Z,100032.57
2019-05-16T13:09:46.642Z,100035.83
2019-05-16T13:12:17.526Z,100035.83
2019-05-16T13:14:45.108Z,100044.81
2019-05-16T13:17:13.022Z,100039.41
2019-05-16T13:19:44.317Z,100038.23
2019-05-16T13:22:11.312Z,100032.09
2019-05-16T13:24:39.047Z,100036.73
2019-05-16T13:27:08.402Z,100035.66
2019-05-16T13:29:37.193Z,100026.92
2019-05-16T13:32:07.593Z,100033.25
2019-05-16T13:34:38.130Z,100036.87
2019-05-16T13:37:07.451Z,100034.59
2019-05-16T13:39:34.732Z,100022.74
2019-05-16T13:42:02.656Z,100019.33
2019-05-16T13:44:30.550Z,100021.61
2019-05-16T13:46:58.376Z,100014.73
2019-05-16T13:49:26.838Z,100011.25
2019-05-16T13:51:54.773Z,100002.77
2019-05-16T13:54:22.623Z,99998.12
2019-05-16T13:56:50.471Z,100001.55
2019-05-16T13:59:18.906Z,100001.23
2019-05-16T14:01:46.807Z,100004.05
2019-05-16T14:04:17.112Z,100004.77
2019-05-16T14:06:44.345Z,100003.02
2019-05-16T14:09:12.192Z,100003.95
2019-05-16T14:11:40.072Z,100001.86
2019-05-16T14:14:07.974Z,100002.83
2019-05-16T14:16:37.690Z,99997.90
2019-05-16T14:19:07.507Z,99999.56
2019-05-16T14:21:35.504Z,99994.44
2019-05-16T14:24:03.663Z,99998.80
2019-05-16T14:26:31.417Z,100002.95
2019-05-16T14:29:00.284Z,100004.47
2019-05-16T14:31:28.038Z,100001.89
2019-05-16T14:33:56.800Z,100009.41
2019-05-16T14:36:27.862Z,100006.89
2019-05-16T14:38:54.373Z,100010.74
2019-05-16T14:41:22.088Z,100017.14
2019-05-16T14:43:49.985Z,100019.17
2019-05-16T14:46:18.514Z,100013.17
2019-05-16T14:48:46.602Z,100013.87
2019-05-16T14:51:17.697Z,100005.63
2019-05-16T14:53:46.907Z,100005.45
2019-05-16T14:56:14.240Z,100002.77
2019-05-16T14:58:42.719Z,99999.95
2019-05-16T15:01:10.571Z,99998.63
2019-05-16T15:03:38.518Z,100001.35
2019-05-16T15:06:08.635Z,99996.00
2019-05-16T15:08:36.347Z,99999.14
2019-05-16T15:11:04.204Z,100002.84
2019-05-16T15:13:31.979Z,99996.89
2019-05-16T15:15:59.850Z,100002.59
2019-05-16T15:18:28.103Z,100000.02
2019-05-16T15:20:57.530Z,100006.00
2019-05-16T15:23:28.330Z,100006.78
2019-05-16T15:25:55.072Z,100004.98
2019-05-16T15:28:26.977Z,100007.91
2019-05-16T15:30:52.635Z,100004.43
2019-05-16T15:33:20.532Z,100000.28
2019-05-16T15:35:48.576Z,100007.75
2019-05-16T15:38:16.775Z,100007.88
2019-05-16T15:40:44.559Z,100011.66
2019-05-16T15:43:12.326Z,100011.52
2019-05-16T15:45:44.033Z,100005.28
2019-05-16T15:48:11.650Z,99998.14
2019-05-16T15:50:39.804Z,99995.28
2019-05-16T15:53:08.137Z,99997.64
2019-05-16T15:55:37.266Z,99995.35
2019-05-16T15:58:09.782Z,99992.36
2019-05-16T16:00:47.833Z,99982.50
2019-05-16T16:03:17.596Z,99986.13
2019-05-16T16:05:45.780Z,99982.71
2019-05-16T16:08:13.793Z,99980.84
2019-05-16T16:10:42.787Z,99988.35
2019-05-16T16:13:10.883Z,99986.77
2019-05-16T16:15:50.309Z,99980.27
2019-05-16T16:18:09.246Z,99982.30
2019-05-16T16:20:37.539Z,99982.87
2019-05-16T16:23:06.779Z,99988.94
2019-05-16T16:25:36.206Z,99997.26
2019-05-16T16:28:07.295Z,99990.78
2019-05-16T16:30:37.367Z,99997.41
2019-05-16T16:33:19.067Z,100001.02
2019-05-16T16:35:37.840Z,100003.90
2019-05-16T16:38:07.083Z,100010.89
2019-05-16T16:40:36.829Z,100005.75
2019-05-16T16:43:07.746Z,100006.81
2019-05-16T16:45:34.557Z,100000.96
2019-05-16T16:48:02.396Z,100004.00
2019-05-16T16:50:30.285Z,100001.39
2019-05-16T16:52:58.137Z,100001.65
2019-05-16T16:55:27.550Z,99998.86
2019-05-16T16:57:59.432Z,100000.36
2019-05-16T17:00:27.970Z,99994.44
2019-05-16T17:03:03.272Z,100002.87
2019-05-16T17:05:26.608Z,100001.12
2019-05-16T17:07:56.980Z,100000.73
2019-05-16T17:10:27.467Z,100007.88
2019-05-16T17:12:57.667Z,100005.48
2019-05-16T17:15:27.239Z,100003.41
2019-05-16T17:17:57.380Z,99996.52
2019-05-16T17:20:25.121Z,99995.31
2019-05-16T17:22:52.936Z,99995.16
2019-05-16T17:25:21.594Z,99993.33
2019-05-16T17:27:49.330Z,99995.03
2019-05-16T17:30:18.781Z,99996.69
2019-05-16T17:32:46.783Z,99990.38
2019-05-16T17:35:18.791Z,99992.91
2019-05-16T17:37:46.664Z,99996.38
2019-05-16T17:40:17.629Z,99988.02
2019-05-16T17:42:47.651Z,99987.57
2019-05-16T17:45:18.085Z,99989.91
2019-05-16T17:47:46.640Z,99986.92
2019-05-16T17:50:17.232Z,99981.10
2019-05-16T17:52:47.566Z,99979.78
2019-05-16T17:55:17.167Z,99980.41
2019-05-16T17:57:45.871Z,99982.66
2019-05-16T18:00:24.395Z,99976.11
2019-05-16T18:02:46.546Z,99980.28
2019-05-16T18:05:17.099Z,99974.53
2019-05-16T18:07:47.171Z,99973.47
2019-05-16T18:10:16.595Z,99974.76
2019-05-16T18:12:44.313Z,99974.06
2019-05-16T18:15:12.788Z,99975.12
2019-05-16T18:17:40.634Z,99978.92
2019-05-16T18:20:09.408Z,99967.44
2019-05-16T18:22:37.273Z,99977.47
2019-05-16T18:25:07.053Z,99978.16
2019-05-16T18:27:37.403Z,99985.48
2019-05-16T18:30:05.952Z,99974.97
2019-05-16T18:32:33.705Z,99984.36
2019-05-16T18:35:02.380Z,99978.43
2019-05-16T18:37:30.997Z,99983.96
2019-05-16T18:39:59.900Z,99983.59
2019-05-16T18:42:28.641Z,99992.33
2019-05-16T18:44:56.660Z,99992.53
2019-05-16T18:47:26.920Z,99989.23
2019-05-16T18:49:54.589Z,99993.87
2019-05-16T18:52:22.451Z,99987.20
2019-05-16T18:54:50.305Z,99986.30
2019-05-16T18:57:18.623Z,100001.74
2019-05-16T18:59:46.360Z,99996.77
2019-05-16T19:02:14.417Z,100003.31
2019-05-16T19:04:42.753Z,99999.88
2019-05-16T19:07:10.961Z,99998.22
2019-05-16T19:09:42.971Z,99995.51
2019-05-16T19:12:13.178Z,99995.89
2019-05-16T19:14:43.099Z,99995.91
2019-05-16T19:17:22.002Z,99999.00
2019-05-16T19:19:46.366Z,99998.17
2019-05-16T19:22:17.087Z,100000.77
2019-05-16T19:24:46.566Z,100000.20
2019-05-16T19:27:17.252Z,99993.26
2019-05-16T19:29:46.243Z,99997.39
2019-05-16T19:32:17.224Z,99990.68
2019-05-16T19:34:49.244Z,99982.64
2019-05-16T19:37:19.880Z,99978.39
2019-05-16T19:39:47.866Z,99985.45
2019-05-16T19:42:17.056Z,99987.37
2019-05-16T19:44:47.166Z,99981.61
2019-05-16T19:47:16.223Z,99981.61
2019-05-16T19:49:46.318Z,99971.31
2019-05-16T19:52:16.251Z,99965.98
2019-05-16T19:54:43.394Z,99966.24
2019-05-16T19:57:11.187Z,99973.94
2019-05-16T19:59:38.953Z,99974.31
2019-05-16T20:02:07.715Z,99977.20
2019-05-16T20:04:36.626Z,99983.20
2019-05-16T20:07:07.232Z,99982.58
2019-05-16T20:09:36.251Z,99982.58
2019-05-16T20:12:04.224Z,99977.45
2019-05-16T20:14:32.565Z,99988.27
2019-05-16T20:17:01.621Z,99984.27
2019-05-16T20:19:29.567Z,99974.34
2019-05-16T20:21:58.117Z,99974.34
2019-05-16T20:24:27.243Z,99972.84
2019-05-16T20:26:57.075Z,99978.70
2019-05-16T20:29:27.354Z,99970.09
2019-05-16T20:31:56.399Z,99973.91
2019-05-16T20:34:26.756Z,99972.13
2019-05-16T20:36:57.080Z,99978.28
2019-05-16T20:39:26.699Z,99978.28
2019-05-16T20:41:59.352Z,99977.81
2019-05-16T20:44:26.595Z,99981.96
2019-05-16T20:46:56.603Z,99982.63
2019-05-16T20:49:23.854Z,99984.83
2019-05-16T20:51:51.659Z,99984.65
2019-05-16T20:54:19.490Z,99984.51
2019-05-16T20:56:49.530Z,99988.16
2019-05-16T20:59:17.260Z,99995.83
2019-05-16T21:01:46.444Z,99990.86
2019-05-16T21:04:17.137Z,99990.86
2019-05-16T21:06:57.565Z,99991.38
2019-05-16T21:09:16.804Z,99991.05
2019-05-16T21:11:44.435Z,99996.53
2019-05-16T21:14:12.970Z,99992.23
2019-05-16T21:16:40.933Z,99989.24
2019-05-16T21:19:09.248Z,99982.62
2019-05-16T21:21:37.040Z,99982.62
2019-05-16T21:24:06.928Z,99990.92
2019-05-16T21:26:36.721Z,99986.95
2019-05-16T21:29:04.541Z,99987.47
2019-05-16T21:31:32.300Z,99989.91
2019-05-16T21:34:00.090Z,99978.30
2019-05-16T21:36:27.831Z,99982.80
2019-05-16T21:38:55.773Z,99984.60
2019-05-16T21:41:23.589Z,99977.81
2019-05-16T21:43:51.376Z,99976.63
2019-05-16T21:46:20.185Z,99981.95
2019-05-16T21:48:48.260Z,99976.30
2019-05-16T21:51:17.061Z,99980.44
2019-05-16T21:53:47.201Z,99980.44
2019-05-16T21:56:17.569Z,99983.75
2019-05-16T21:58:47.362Z,99983.94
2019-05-16T22:01:19.560Z,99978.95
2019-05-16T22:03:47.337Z,99983.73
2019-05-16T22:06:16.660Z,99981.74
2019-05-16T22:08:46.701Z,99981.74
2019-05-16T22:11:17.084Z,99985.24
2019-05-16T22:13:46.436Z,99979.93
2019-05-16T22:16:17.378Z,99971.95
2019-05-16T22:18:47.188Z,99981.24
2019-05-16T22:21:16.367Z,99981.24
2019-05-16T22:23:46.341Z,99971.27
2019-05-16T22:26:16.631Z,99974.92
2019-05-16T22:28:46.639Z,99976.58
2019-05-16T22:31:16.510Z,99974.58
2019-05-16T22:33:46.911Z,99974.91
2019-05-16T22:36:17.160Z,99967.27
2019-05-16T22:38:44.510Z,99953.80
2019-05-16T22:41:12.355Z,99963.09
2019-05-16T22:43:40.241Z,99959.61
2019-05-16T22:46:10.032Z,99958.27
2019-05-16T22:48:37.710Z,99948.93
2019-05-16T22:51:07.132Z,99961.86
2019-05-16T22:53:36.855Z,99960.38
2019-05-16T22:56:07.244Z,99953.22
2019-05-16T22:58:34.744Z,99953.22
2019-05-16T23:01:03.382Z,99956.52
2019-05-16T23:03:31.244Z,99949.09
2019-05-16T23:05:59.007Z,99952.89
2019-05-16T23:08:27.321Z,99952.89
2019-05-16T23:10:56.496Z,99942.11
2019-05-16T23:13:26.575Z,99939.44
2019-05-16T23:15:57.005Z,99941.56
2019-05-16T23:18:26.573Z,99939.68
2019-05-16T23:20:56.795Z,99939.68
2019-05-16T23:23:26.432Z,99935.52
2019-05-16T23:25:54.129Z,99919.41
2019-05-16T23:28:22.534Z,99924.20
2019-05-16T23:30:50.289Z,99915.77
2019-05-16T23:33:18.086Z,99915.77
2019-05-16T23:35:46.829Z,99918.92
2019-05-16T23:38:19.737Z,99910.62
2019-05-16T23:40:46.846Z,99911.95
2019-05-16T23:43:14.448Z,99904.84
2019-05-16T23:45:42.630Z,99904.64
2019-05-16T23:48:11.330Z,99910.27
2019-05-16T23:50:39.295Z,99910.27
2019-05-16T23:53:07.589Z,99910.58
2019-05-16T23:55:37.126Z,99901.94
2019-05-16T23:58:06.946Z,99898.81
